Data for 05/21/2014

Time Sea-Level Adjusted Pressure Absolute Pressure Temperature Relative Humidity Dew Point   
(mb) (inHg) (mb) (inHg) (C) (F) (%) (C) (F)
00:05 1019 30.09 848 25.04 10.2 50.4 60 2.9 37.3
00:10 1019 30.09 848 25.04 10.2 50.3 60 2.8 37.1
00:15 1019 30.09 848 25.04 10.3 50.6 60 3 37.3
00:20 1019 30.09 848 25.04 10.3 50.6 60 2.9 37.3
00:25 1019 30.09 848 25.04 10.3 50.5 60 2.9 37.3
00:30 1019 30.09 848 25.04 10.2 50.4 61 3 37.4
00:35 1019 30.09 848 25.04 10.2 50.3 61 3 37.4
00:40 1019 30.09 848 25.04 10.2 50.3 61 3 37.4
00:45 1019 30.09 848 25.04 10.1 50.2 61 3 37.3
00:50 1019 30.09 848 25.04 10.1 50.2 61 3 37.5
00:55 1019 30.09 848 25.04 10 50.1 62 3.1 37.6
01:00 1018 30.06 848 25.04 9.6 49.3 64 3.2 37.7
01:05 1018 30.06 848 25.04 9.4 49 64 3 37.4
01:10 1019 30.09 848 25.04 9.6 49.2 64 3.1 37.6
01:15 1019 30.09 848 25.04 9.6 49.2 64 3.1 37.6
01:20 1019 30.09 848 25.04 9.6 49.3 64 3.1 37.5
01:25 1019 30.09 848 25.04 9.5 49.1 65 3.3 37.9
01:30 1019 30.09 848 25.04 9.4 48.9 65 3.1 37.6
01:35 1019 30.09 848 25.04 9.5 49.2 64 3 37.5
01:40 1019 30.09 848 25.04 9.7 49.4 64 3.1 37.7
01:45 1019 30.09 848 25.04 9.6 49.3 65 3.3 37.9
01:50 1019 30.09 848 25.04 9.4 49 65 3.2 37.8
01:55 1019 30.09 848 25.04 9.4 48.9 65 3.3 37.9
02:00 1019 30.09 848 25.04 9.3 48.7 66 3.2 37.8
02:05 1019 30.09 848 25.04 9.2 48.6 66 3.3 38
02:10 1019 30.09 848 25.04 9.1 48.5 67 3.4 38.1
02:15 1019 30.09 848 25.04 9.1 48.4 67 3.3 38
02:20 1019 30.09 848 25.04 9.2 48.5 67 3.4 38.1
02:25 1019 30.09 848 25.04 9.1 48.4 68 3.5 38.2
02:30 1019 30.09 848 25.04 9 48.2 68 3.4 38.2
02:35 1019 30.09 848 25.04 9.1 48.3 68 3.4 38.1
02:40 1019 30.09 848 25.04 9.1 48.4 68 3.5 38.2
02:45 1019 30.09 848 25.04 9.2 48.5 68 3.5 38.3
02:50 1019 30.09 848 25.04 9.1 48.4 68 3.5 38.3
02:55 1019 30.09 848 25.04 9.1 48.4 68 3.6 38.4
03:00 1019 30.09 848 25.04 9.2 48.5 67 3.5 38.3
03:05 1019 30.09 848 25.04 9.3 48.7 67 3.5 38.3
03:10 1019 30.09 848 25.04 9.3 48.7 67 3.5 38.3
03:15 1019 30.09 848 25.04 9.4 48.9 67 3.5 38.4
03:20 1019 30.09 848 25.04 9.4 48.9 67 3.6 38.4
03:25 1019 30.09 848 25.04 9.3 48.8 67 3.6 38.4
03:30 1019 30.09 848 25.04 9.3 48.8 67 3.6 38.5
03:35 1019 30.09 848 25.04 9.2 48.5 68 3.7 38.6
03:40 1019 30.09 848 25.04 9 48.2 69 3.6 38.5
03:45 1019 30.09 848 25.04 9 48.1 69 3.6 38.5
03:50 1019 30.09 848 25.04 9 48.2 69 3.6 38.4
03:55 1019 30.09 848 25.04 9 48.2 69 3.7 38.6
04:00 1019 30.09 848 25.04 8.9 48.1 70 3.7 38.7
04:05 1019 30.09 848 25.04 8.7 47.6 71 3.8 38.8
04:10 1019 30.09 848 25.04 8.4 47.2 72 3.7 38.6
04:15 1019 30.09 848 25.04 8.3 46.9 72 3.6 38.5
04:20 1019 30.09 848 25.04 8.4 47 72 3.6 38.5
04:25 1019 30.09 848 25.04 8.4 47 72 3.6 38.5
04:30 1019 30.09 848 25.04 8.4 47.1 71 3.6 38.4
04:35 1019 30.09 848 25.04 8.3 46.9 72 3.6 38.5
04:40 1019 30.09 848 25.04 8 46.4 73 3.5 38.4
04:45 1019 30.09 848 25.04 7.7 45.8 75 3.5 38.3
04:50 1019 30.09 848 25.04 7.4 45.4 76 3.5 38.3
04:55 1019 30.09 848 25.04 7.3 45.1 77 3.4 38.2
05:00 1019 30.09 849 25.07 7.2 44.9 77 3.4 38.1
05:05 1019 30.09 849 25.07 7.4 45.3 76 3.4 38
05:10 1020 30.12 849 25.07 7.5 45.5 75 3.4 38.1
05:15 1020 30.12 849 25.07 7.5 45.6 75 3.4 38
05:20 1020 30.12 849 25.07 7.8 46 74 3.3 38
05:25 1020 30.12 849 25.07 8 46.4 73 3.4 38.1
05:30 1020 30.12 849 25.07 8.1 46.5 72 3.4 38.2
05:35 1020 30.12 849 25.07 8.2 46.8 72 3.4 38.2
05:40 1020 30.12 849 25.07 8.4 47.1 71 3.4 38.2
05:45 1020 30.12 849 25.07 8.5 47.4 70 3.5 38.2
05:50 1020 30.12 849 25.07 8.7 47.7 69 3.5 38.2
05:55 1020 30.12 849 25.07 9 48.1 69 3.5 38.4
06:00 1020 30.12 849 25.07 9.4 48.9 67 3.5 38.3
06:05 1020 30.12 849 25.07 9.6 49.2 67 3.8 38.8
06:10 1020 30.12 849 25.07 9.6 49.3 67 3.8 38.8
06:15 1020 30.12 849 25.07 9.9 49.9 65 3.8 38.8
06:20 1020 30.12 849 25.07 10 50 65 3.8 38.8
06:25 1020 30.12 849 25.07 10.2 50.3 64 3.8 38.8
06:30 1020 30.12 849 25.07 10.5 51 63 3.9 39
06:35 1020 30.12 849 25.07 10.5 50.9 63 3.8 38.8
06:40 1020 30.12 849 25.07 10.5 50.8 63 3.7 38.7
06:45 1020 30.12 849 25.07 10.6 51.2 63 3.9 39
06:50 1020 30.12 849 25.07 10.7 51.3 62 3.9 39
06:55 1020 30.12 849 25.07 10.9 51.6 61 3.7 38.7
07:00 1020 30.12 849 25.07 11.5 52.6 60 4.1 39.4
07:05 1020 30.12 849 25.07 11.6 52.9 60 4.1 39.4
07:10 1020 30.12 849 25.07 11.5 52.8 61 4.2 39.6
07:15 1020 30.12 849 25.07 11.7 53.1 61 4.4 39.9
07:20 1020 30.12 849 25.07 11.5 52.6 61 4.3 39.7
07:25 1020 30.12 849 25.07 11.8 53.3 58 3.9 39.1
07:30 1020 30.12 849 25.07 11.9 53.5 56 3.5 38.2
07:35 1020 30.12 849 25.07 12.3 54.1 56 3.8 38.9
07:40 1020 30.12 849 25.07 12.2 54 56 3.7 38.6
07:45 1020 30.12 849 25.07 12.1 53.8 56 3.7 38.7
07:50 1020 30.12 849 25.07 12.1 53.8 54 3.2 37.8
07:55 1020 30.12 849 25.07 12.3 54.1 55 3.6 38.5
08:00 1020 30.12 849 25.07 12.6 54.6 53 3.4 38.1
08:05 1020 30.12 849 25.07 12.7 54.8 52 3.1 37.6
08:10 1020 30.12 849 25.07 12.9 55.1 52 3.2 37.8
08:15 1020 30.12 849 25.07 12.8 55.1 50 2.9 37.2
08:20 1020 30.12 849 25.07 13 55.4 50 2.9 37.3
08:25 1020 30.12 849 25.07 13.1 55.7 50 2.9 37.2
08:30 1020 30.12 849 25.07 13.6 56.4 49 3.1 37.5
08:35 1020 30.12 849 25.07 13.8 56.9 47 2.9 37.2
08:40 1020 30.12 849 25.07 14.4 57.9 45 2.7 36.9
08:45 1020 30.12 849 25.07 14.7 58.4 45 2.9 37.1
08:50 1020 30.12 849 25.07 14.8 58.6 43 2.4 36.3
08:55 1019 30.09 849 25.07 14.9 58.9 43 2.6 36.6
09:00 1019 30.09 849 25.07 15.6 60 40 2.1 35.7
09:05 1019 30.09 849 25.07 15 59 41 2 35.6
09:10 1019 30.09 849 25.07 15.4 59.7 41 2.2 35.9
09:15 1019 30.09 849 25.07 15 59 41 2 35.5
09:20 1019 30.09 848 25.04 15.1 59.2 45 3.3 38
09:25 1019 30.09 849 25.07 15.3 59.5 46 3.7 38.7
09:30 1019 30.09 848 25.04 15.9 60.6 46 4.4 40
09:35 1019 30.09 848 25.04 14.9 58.9 48 4.2 39.6
09:40 1019 30.09 848 25.04 14.9 58.7 49 4.3 39.7
09:45 1019 30.09 848 25.04 14.3 57.8 49 3.8 38.8
09:50 1019 30.09 848 25.04 15.3 59.5 46 3.9 39
09:55 1019 30.09 848 25.04 15.2 59.4 48 4.3 39.7
10:00 1019 30.09 848 25.04 15.1 59.2 46 3.6 38.5
10:05 1019 30.09 848 25.04 16 60.7 46 4.6 40.2
10:10 1019 30.09 848 25.04 15.9 60.6 46 4.3 39.8
10:15 1019 30.09 848 25.04 15.6 60 45 3.7 38.7
10:20 1019 30.09 848 25.04 15.8 60.5 46 4.3 39.7
10:25 1019 30.09 848 25.04 16 60.8 42 3.3 37.9
10:30 1019 30.09 848 25.04 16.7 62 42 4 39.1
10:35 1019 30.09 848 25.04 17.2 62.9 41 4 39.3
10:40 1019 30.09 848 25.04 17 62.5 42 4.2 39.5
10:45 1019 30.09 848 25.04 17.3 63.2 42 4.3 39.7
10:50 1019 30.09 848 25.04 17.5 63.5 40 3.8 38.9
10:55 1019 30.09 848 25.04 17.7 63.8 42 4.6 40.2
11:00 1019 30.09 848 25.04 17.5 63.4 40 3.9 39.1
11:05 1019 30.09 848 25.04 18 64.5 40 4.2 39.6
11:10 1019 30.09 848 25.04 18.1 64.5 40 4.3 39.8
11:15 1019 30.09 848 25.04 17.3 63.1 41 4.2 39.6
11:20 1019 30.09 848 25.04 18.3 64.9 37 3.6 38.4
11:25 1019 30.09 848 25.04 18.4 65.1 38 3.8 38.9
11:30 1019 30.09 848 25.04 17.7 63.8 39 3.5 38.4
11:35 1019 30.09 848 25.04 18.6 65.5 37 3.9 39
11:40 1019 30.09 848 25.04 19.3 66.7 36 4.1 39.4
11:45 1019 30.09 848 25.04 20 68 34 3.7 38.7
11:50 1019 30.09 848 25.04 20.2 68.3 31 2.9 37.2
11:55 1019 30.09 848 25.04 20.2 68.3 32 3.2 37.8
12:00 1019 30.09 848 25.04 20.6 69 32 3.5 38.3
12:05 1019 30.09 848 25.04 20.4 68.6 31 2.9 37.2
12:10 1019 30.09 848 25.04 20.7 69.2 31 3.2 37.8
12:15 1018 30.06 848 25.04 21.5 70.6 29 3 37.4
12:20 1018 30.06 848 25.04 21.2 70.2 29 2.9 37.2
12:25 1018 30.06 848 25.04 21.2 70.1 30 3 37.4
12:30 1018 30.06 848 25.04 20.7 69.2 31 3.3 38
12:35 1018 30.06 848 25.04 19.7 67.5 31 2.5 36.4
12:40 1018 30.06 848 25.04 19.1 66.3 36 3.8 38.9
12:45 1018 30.06 848 25.04 19.2 66.6 33 2.9 37.2
12:50 1018 30.06 848 25.04 18.6 65.6 36 3.5 38.4
12:55 1018 30.06 848 25.04 17.9 64.3 36 2.7 36.8
13:00 1018 30.06 848 25.04 18.1 64.6 35 2.6 36.7
13:05 1018 30.06 848 25.04 18.6 65.5 33 2.2 35.9
13:10 1018 30.06 848 25.04 19.2 66.6 33 2.6 36.7
13:15 1018 30.06 848 25.04 19.3 66.7 32 2.2 35.9
13:20 1018 30.06 847 25.01 20.6 69 30 2.5 36.4
13:25 1018 30.06 847 25.01 20.7 69.3 30 2.7 36.9
13:30 1018 30.06 847 25.01 20.8 69.5 29 2.3 36.2
13:35 1018 30.06 847 25.01 19.9 67.8 32 2.9 37.2
13:40 1018 30.06 847 25.01 19.9 67.8 32 2.6 36.8
13:45 1018 30.06 847 25.01 20.8 69.4 29 2.3 36.1
13:50 1018 30.06 847 25.01 20.6 69 30 2.8 37
13:55 1018 30.06 847 25.01 20.8 69.4 28 1.9 35.3
14:00 1018 30.06 847 25.01 21 69.9 30 2.8 37.1
14:05 1018 30.06 847 25.01 19.9 67.8 31 2.5 36.5
14:10 1018 30.06 847 25.01 19.6 67.2 32 2.4 36.4
14:15 1018 30.06 847 25.01 19.5 67.2 31 2.2 36
14:20 1018 30.06 847 25.01 20 68 30 1.9 35.4
14:25 1018 30.06 847 25.01 20.8 69.4 31 3.1 37.5
14:30 1018 30.06 847 25.01 20.9 69.6 30 2.9 37.2
14:35 1018 30.06 847 25.01 20.8 69.4 31 3 37.4
14:40 1018 30.06 847 25.01 20.6 69.1 31 2.9 37.3
14:45 1018 30.06 847 25.01 20.2 68.3 31 2.8 37
14:50 1018 30.06 847 25.01 20.5 68.9 30 2.4 36.4
14:55 1018 30.06 847 25.01 21.1 70 28 2.3 36.2
15:00 1018 30.06 847 25.01 20.6 69 30 2.5 36.4
15:05 1018 30.06 847 25.01 21.2 70.1 28 2.3 36.2
15:10 1018 30.06 847 25.01 21.3 70.4 29 2.7 36.9
15:15 1018 30.06 847 25.01 21.9 71.4 28 2.5 36.5
15:20 1018 30.06 847 25.01 21.1 69.9 29 2.6 36.6
15:25 1018 30.06 847 25.01 21.2 70.2 29 2.8 37
15:30 1018 30.06 847 25.01 21.3 70.3 30 3.3 37.9
15:35 1018 30.06 847 25.01 21.1 70 31 3.3 38
15:40 1018 30.06 847 25.01 20.8 69.5 32 3.8 38.8
15:45 1018 30.06 847 25.01 20.4 68.6 32 3.4 38.1
15:50 1018 30.06 847 25.01 20.5 68.9 31 2.9 37.2
15:55 1018 30.06 847 25.01 20.8 69.4 32 3.8 38.9
16:00 1018 30.06 847 25.01 20.1 68.1 33 3.6 38.4
16:05 1018 30.06 847 25.01 19.7 67.4 34 3.7 38.7
16:10 1018 30.06 847 25.01 19.9 67.8 33 3.2 37.8
16:15 1017 30.03 847 25.01 20.3 68.5 32 3.2 37.8
16:20 1017 30.03 847 25.01 20.5 68.8 31 3.1 37.5
16:25 1017 30.03 847 25.01 20.6 69 32 3.4 38.1
16:30 1017 30.03 847 25.01 20.7 69.3 30 2.9 37.3
16:35 1017 30.03 847 25.01 20.6 69 30 2.5 36.5
16:40 1017 30.03 847 25.01 20.2 68.4 31 2.8 37.1
16:45 1017 30.03 847 25.01 20.4 68.7 30 2.6 36.7
16:50 1017 30.03 847 25.01 20.5 68.9 30 2.7 36.8
16:55 1017 30.03 847 25.01 20.5 68.9 30 2.3 36.2
17:00 1017 30.03 847 25.01 20.1 68.1 31 2.4 36.3
17:05 1017 30.03 847 25.01 20.1 68.1 31 2.4 36.4
17:10 1017 30.03 847 25.01 20.3 68.5 30 2.4 36.4
17:15 1017 30.03 847 25.01 20 68 31 2.6 36.7
17:20 1017 30.03 847 25.01 19.8 67.6 31 2.4 36.3
17:25 1017 30.03 847 25.01 19.9 67.7 31 2.6 36.6
17:30 1017 30.03 847 25.01 19.8 67.7 31 2.6 36.6
17:35 1017 30.03 847 25.01 19.7 67.4 32 2.6 36.6
17:40 1017 30.03 847 25.01 19.7 67.4 32 2.7 36.8
17:45 1017 30.03 847 25.01 19.9 67.8 32 3 37.5
17:50 1017 30.03 847 25.01 19.5 67.2 33 2.8 37.1
17:55 1017 30.03 847 25.01 19.4 66.9 33 2.8 37
18:00 1018 30.06 847 25.01 19.5 67 33 3.1 37.6
18:05 1018 30.06 847 25.01 19.4 66.8 34 3.2 37.8
18:10 1018 30.06 847 25.01 19.4 66.8 35 3.7 38.7
18:15 1018 30.06 847 25.01 19.2 66.5 35 3.3 38
18:20 1018 30.06 847 25.01 19.2 66.5 36 3.9 39
18:25 1018 30.06 847 25.01 19 66.3 36 3.8 38.8
18:30 1018 30.06 847 25.01 18.9 65.9 37 4.2 39.5
18:35 1018 30.06 847 25.01 18.9 66 38 4.5 40.2
18:40 1018 30.06 847 25.01 19 66.2 39 4.8 40.7
18:45 1018 30.06 847 25.01 18.9 65.9 40 5.2 41.3
18:50 1018 30.06 847 25.01 18.8 65.8 40 4.9 40.9
18:55 1018 30.06 847 25.01 18.7 65.6 41 5.4 41.7
19:00 1018 30.06 847 25.01 18.5 65.3 42 5.7 42.2
19:05 1018 30.06 848 25.04 18.4 65.1 43 5.7 42.3
19:10 1018 30.06 848 25.04 18.3 64.9 44 5.8 42.4
19:15 1018 30.06 848 25.04 18.2 64.7 44 5.9 42.6
19:20 1018 30.06 848 25.04 18.1 64.5 44 5.9 42.6
19:25 1018 30.06 848 25.04 18 64.3 45 6 42.7
19:30 1019 30.09 848 25.04 17.9 64.3 46 6.2 43.1
19:35 1019 30.09 848 25.04 17.9 64.2 46 6.3 43.3
19:40 1019 30.09 848 25.04 17.7 63.9 47 6.5 43.8
19:45 1019 30.09 848 25.04 17.7 63.8 48 6.5 43.7
19:50 1019 30.09 848 25.04 17.6 63.6 48 6.5 43.6
19:55 1019 30.09 848 25.04 17.5 63.5 49 6.7 44
20:00 1019 30.09 848 25.04 17.4 63.3 50 6.8 44.3
20:05 1018 30.06 848 25.04 17.2 63 49 6.6 43.9
20:10 1019 30.09 848 25.04 17.2 62.9 50 6.6 43.9
20:15 1019 30.09 848 25.04 17.1 62.8 50 6.7 44
20:20 1019 30.09 848 25.04 16.9 62.5 50 6.5 43.7
20:25 1019 30.09 848 25.04 16.8 62.3 51 6.6 44
20:30 1019 30.09 848 25.04 16.7 62 52 6.8 44.3
20:35 1019 30.09 848 25.04 16.6 61.8 52 6.7 44.1
20:40 1019 30.09 848 25.04 16.5 61.7 53 6.9 44.4
20:45 1019 30.09 848 25.04 16.4 61.5 54 7.2 45
20:50 1019 30.09 848 25.04 16.2 61.1 55 7.2 44.9
20:55 1019 30.09 849 25.07 16 60.9 56 7.3 45.1
21:00 1019 30.09 849 25.07 16 60.9 59 8.2 46.7
21:05 1020 30.12 849 25.07 16.1 61.1 55 7.2 44.9
21:10 1020 30.12 849 25.07 16 60.8 55 7 44.6
21:15 1020 30.12 849 25.07 16 60.8 55 7.1 44.7
21:20 1020 30.12 849 25.07 15.9 60.7 55 7.1 44.8
21:25 1020 30.12 849 25.07 15.9 60.6 56 7.1 44.8
21:30 1020 30.12 849 25.07 15.7 60.3 55 6.8 44.2
21:35 1020 30.12 849 25.07 15.5 60 56 6.9 44.5
21:40 1020 30.12 849 25.07 15.3 59.6 58 7.1 44.8
21:45 1020 30.12 849 25.07 15.2 59.3 57 6.8 44.3
21:50 1020 30.12 849 25.07 15.1 59.3 56 6.4 43.6
21:55 1020 30.12 849 25.07 15.3 59.6 55 6.5 43.8
22:00 1020 30.12 849 25.07 15.3 59.5 57 6.8 44.3
22:05 1020 30.12 850 25.1 15.1 59.2 58 7 44.7
22:10 1020 30.12 850 25.1 15 59 58 7 44.6
22:15 1020 30.12 850 25.1 14.8 58.6 59 6.8 44.3
22:20 1020 30.12 850 25.1 14.7 58.4 60 7.1 44.7
22:25 1020 30.12 849 25.07 14.4 58 60 6.8 44.3
22:30 1020 30.12 849 25.07 14.5 58.2 60 6.8 44.3
22:35 1020 30.12 849 25.07 14.7 58.4 60 7 44.6
22:40 1020 30.12 849 25.07 14.7 58.4 60 7.1 44.8
22:45 1020 30.12 849 25.07 14.5 58 61 7.2 44.9
22:50 1020 30.12 849 25.07 14.3 57.8 60 6.8 44.2
22:55 1020 30.12 849 25.07 14.1 57.5 60 6.7 44
23:00 1020 30.12 849 25.07 14.1 57.4 62 6.9 44.4
23:05 1020 30.12 849 25.07 14 57.2 63 7.2 44.9
23:10 1020 30.12 849 25.07 13.7 56.7 65 7.2 45
23:15 1020 30.12 849 25.07 13.5 56.3 64 7 44.6
23:20 1020 30.12 849 25.07 13.6 56.5 63 6.9 44.3
23:25 1020 30.12 849 25.07 13.5 56.3 58 5.5 41.9
23:30 1020 30.12 849 25.07 13.6 56.4 56 5 40.9
23:35 1020 30.12 849 25.07 13.6 56.5 56 5.1 41.3
23:40 1020 30.12 849 25.07 13.8 56.8 54 4.7 40.5
23:45 1020 30.12 849 25.07 13.8 56.9 56 5.2 41.3
23:50 1020 30.12 849 25.07 13.8 56.8 56 5.3 41.5
23:55 1020 30.12 849 25.07 13.6 56.4 57 5.4 41.6
24:00 1020 30.12 849 25.07 13.3 55.9 59 5.5 41.8